<?xml version="1.0" encoding="utf-8"?>
<gpx xmlns:xsi="http://www.w3.org/2001/XMLSchema-instance" xmlns:xsd="http://www.w3.org/2001/XMLSchema" version="1.1" creator="Shapelink.com" xmlns="http://www.topografix.com/GPX/1/1" xmlns:gpxtpx="http://www.garmin.com/xmlschemas/TrackPointExtension/v1">
  <metadata>
    <name>Laufen 2.54 km, 2011-05-17</name>
    <desc></desc>
    <author><name>Jessica Ternander</name></author> 
    <time>2011-05-17T18:49:32Z</time>
  </metadata>
  <trk>
    <name>Laufen 2.54 km, 2011-05-17</name>
    <trkseg>
      <trkpt lat="59.318666" lon="18.4867733">
        <ele>34.7449</ele>
        <time>2011-05-17T18:49:32Z</time>
      </trkpt>
      <trkpt lat="59.3186107" lon="18.4866048">
        <ele>35.2255</ele>
        <time>2011-05-17T18:49:36Z</time>
      </trkpt>
      <trkpt lat="59.3185535" lon="18.4864698">
        <ele>35.2255</ele>
        <time>2011-05-17T18:49:39Z</time>
      </trkpt>
      <trkpt lat="59.3184651" lon="18.4863137">
        <ele>36.1868</ele>
        <time>2011-05-17T18:49:43Z</time>
      </trkpt>
      <trkpt lat="59.3183055" lon="18.4861482">
        <ele>36.6675</ele>
        <time>2011-05-17T18:49:49Z</time>
      </trkpt>
      <trkpt lat="59.3182071" lon="18.4860435">
        <ele>35.7061</ele>
        <time>2011-05-17T18:49:53Z</time>
      </trkpt>
      <trkpt lat="59.3181148" lon="18.4859655">
        <ele>37.1481</ele>
        <time>2011-05-17T18:49:57Z</time>
      </trkpt>
      <trkpt lat="59.3180947" lon="18.4859517">
        <ele>37.1481</ele>
        <time>2011-05-17T18:49:58Z</time>
      </trkpt>
      <trkpt lat="59.3179994" lon="18.4859016">
        <ele>37.6287</ele>
        <time>2011-05-17T18:50:02Z</time>
      </trkpt>
      <trkpt lat="59.3178916" lon="18.4858263">
        <ele>39.0707</ele>
        <time>2011-05-17T18:50:06Z</time>
      </trkpt>
      <trkpt lat="59.3177401" lon="18.4857989">
        <ele>37.6287</ele>
        <time>2011-05-17T18:50:11Z</time>
      </trkpt>
      <trkpt lat="59.3176078" lon="18.4857658">
        <ele>37.6287</ele>
        <time>2011-05-17T18:50:16Z</time>
      </trkpt>
      <trkpt lat="59.317471" lon="18.4857371">
        <ele>37.1481</ele>
        <time>2011-05-17T18:50:21Z</time>
      </trkpt>
      <trkpt lat="59.3173699" lon="18.4857326">
        <ele>37.6287</ele>
        <time>2011-05-17T18:50:25Z</time>
      </trkpt>
      <trkpt lat="59.3172393" lon="18.4857456">
        <ele>38.1094</ele>
        <time>2011-05-17T18:50:30Z</time>
      </trkpt>
      <trkpt lat="59.3171043" lon="18.4857853">
        <ele>39.0707</ele>
        <time>2011-05-17T18:50:35Z</time>
      </trkpt>
      <trkpt lat="59.3169193" lon="18.4859088">
        <ele>38.5901</ele>
        <time>2011-05-17T18:50:41Z</time>
      </trkpt>
      <trkpt lat="59.3167845" lon="18.485948">
        <ele>38.1094</ele>
        <time>2011-05-17T18:50:46Z</time>
      </trkpt>
      <trkpt lat="59.3166474" lon="18.4859698">
        <ele>35.7061</ele>
        <time>2011-05-17T18:50:51Z</time>
      </trkpt>
      <trkpt lat="59.3165681" lon="18.4859549">
        <ele>34.7449</ele>
        <time>2011-05-17T18:50:55Z</time>
      </trkpt>
      <trkpt lat="59.3165089" lon="18.4860857">
        <ele>31.3801</ele>
        <time>2011-05-17T18:50:59Z</time>
      </trkpt>
      <trkpt lat="59.316436" lon="18.48625">
        <ele>26.0929</ele>
        <time>2011-05-17T18:51:03Z</time>
      </trkpt>
      <trkpt lat="59.3164272" lon="18.4864051">
        <ele>24.651</ele>
        <time>2011-05-17T18:51:07Z</time>
      </trkpt>
      <trkpt lat="59.3164268" lon="18.4864413">
        <ele>23.6896</ele>
        <time>2011-05-17T18:51:08Z</time>
      </trkpt>
      <trkpt lat="59.3164589" lon="18.4866721">
        <ele>24.651</ele>
        <time>2011-05-17T18:51:13Z</time>
      </trkpt>
      <trkpt lat="59.316497" lon="18.4868941">
        <ele>25.1317</ele>
        <time>2011-05-17T18:51:18Z</time>
      </trkpt>
      <trkpt lat="59.316489" lon="18.4870487">
        <ele>23.6896</ele>
        <time>2011-05-17T18:51:21Z</time>
      </trkpt>
      <trkpt lat="59.3165888" lon="18.4872334">
        <ele>23.6896</ele>
        <time>2011-05-17T18:51:26Z</time>
      </trkpt>
      <trkpt lat="59.3166172" lon="18.487267">
        <ele>24.651</ele>
        <time>2011-05-17T18:51:27Z</time>
      </trkpt>
      <trkpt lat="59.3167368" lon="18.487486">
        <ele>25.1317</ele>
        <time>2011-05-17T18:51:33Z</time>
      </trkpt>
      <trkpt lat="59.3168872" lon="18.4876985">
        <ele>24.651</ele>
        <time>2011-05-17T18:51:41Z</time>
      </trkpt>
      <trkpt lat="59.3169736" lon="18.4879487">
        <ele>25.1317</ele>
        <time>2011-05-17T18:51:47Z</time>
      </trkpt>
      <trkpt lat="59.3170527" lon="18.4881855">
        <ele>30.4188</ele>
        <time>2011-05-17T18:51:52Z</time>
      </trkpt>
      <trkpt lat="59.3170945" lon="18.488451">
        <ele>39.0707</ele>
        <time>2011-05-17T18:51:57Z</time>
      </trkpt>
      <trkpt lat="59.317123" lon="18.4886994">
        <ele>48.684</ele>
        <time>2011-05-17T18:52:02Z</time>
      </trkpt>
      <trkpt lat="59.3169675" lon="18.4887335">
        <ele>52.0486</ele>
        <time>2011-05-17T18:52:08Z</time>
      </trkpt>
      <trkpt lat="59.3169404" lon="18.4887358">
        <ele>52.5292</ele>
        <time>2011-05-17T18:52:09Z</time>
      </trkpt>
      <trkpt lat="59.3167814" lon="18.4888838">
        <ele>54.9324</ele>
        <time>2011-05-17T18:52:15Z</time>
      </trkpt>
      <trkpt lat="59.3167126" lon="18.4888924">
        <ele>52.0486</ele>
        <time>2011-05-17T18:52:17Z</time>
      </trkpt>
      <trkpt lat="59.3165871" lon="18.4888132">
        <ele>45.3192</ele>
        <time>2011-05-17T18:52:21Z</time>
      </trkpt>
      <trkpt lat="59.3164599" lon="18.4885977">
        <ele>36.6675</ele>
        <time>2011-05-17T18:52:26Z</time>
      </trkpt>
      <trkpt lat="59.3163905" lon="18.4884055">
        <ele>30.8995</ele>
        <time>2011-05-17T18:52:30Z</time>
      </trkpt>
      <trkpt lat="59.3163293" lon="18.488303">
        <ele>28.0155</ele>
        <time>2011-05-17T18:52:33Z</time>
      </trkpt>
      <trkpt lat="59.3162107" lon="18.4882562">
        <ele>27.0543</ele>
        <time>2011-05-17T18:52:38Z</time>
      </trkpt>
      <trkpt lat="59.3161221" lon="18.4882591">
        <ele>29.9381</ele>
        <time>2011-05-17T18:52:43Z</time>
      </trkpt>
      <trkpt lat="59.3160428" lon="18.4881683">
        <ele>28.9769</ele>
        <time>2011-05-17T18:52:48Z</time>
      </trkpt>
      <trkpt lat="59.3159496" lon="18.4880294">
        <ele>28.4962</ele>
        <time>2011-05-17T18:52:53Z</time>
      </trkpt>
      <trkpt lat="59.3159307" lon="18.4879787">
        <ele>28.4962</ele>
        <time>2011-05-17T18:52:54Z</time>
      </trkpt>
      <trkpt lat="59.3158754" lon="18.4878031">
        <ele>26.5736</ele>
        <time>2011-05-17T18:52:58Z</time>
      </trkpt>
      <trkpt lat="59.31582" lon="18.4876607">
        <ele>27.0543</ele>
        <time>2011-05-17T18:53:02Z</time>
      </trkpt>
      <trkpt lat="59.3157729" lon="18.4875924">
        <ele>27.0543</ele>
        <time>2011-05-17T18:53:05Z</time>
      </trkpt>
      <trkpt lat="59.3156295" lon="18.4875289">
        <ele>26.0929</ele>
        <time>2011-05-17T18:53:11Z</time>
      </trkpt>
      <trkpt lat="59.3155916" lon="18.4875289">
        <ele>28.4962</ele>
        <time>2011-05-17T18:53:13Z</time>
      </trkpt>
      <trkpt lat="59.3155212" lon="18.4875672">
        <ele>32.3416</ele>
        <time>2011-05-17T18:53:17Z</time>
      </trkpt>
      <trkpt lat="59.3154379" lon="18.4875727">
        <ele>32.3416</ele>
        <time>2011-05-17T18:53:20Z</time>
      </trkpt>
      <trkpt lat="59.3153145" lon="18.4876109">
        <ele>33.7834</ele>
        <time>2011-05-17T18:53:25Z</time>
      </trkpt>
      <trkpt lat="59.3151974" lon="18.487601">
        <ele>35.7061</ele>
        <time>2011-05-17T18:53:31Z</time>
      </trkpt>
      <trkpt lat="59.3150948" lon="18.4875317">
        <ele>35.2255</ele>
        <time>2011-05-17T18:53:36Z</time>
      </trkpt>
      <trkpt lat="59.3149642" lon="18.4873403">
        <ele>33.3029</ele>
        <time>2011-05-17T18:53:42Z</time>
      </trkpt>
      <trkpt lat="59.3148991" lon="18.4871929">
        <ele>31.8607</ele>
        <time>2011-05-17T18:53:46Z</time>
      </trkpt>
      <trkpt lat="59.314832" lon="18.48705">
        <ele>30.8995</ele>
        <time>2011-05-17T18:53:50Z</time>
      </trkpt>
      <trkpt lat="59.3147373" lon="18.4869049">
        <ele>31.3801</ele>
        <time>2011-05-17T18:53:55Z</time>
      </trkpt>
      <trkpt lat="59.314649" lon="18.4867997">
        <ele>31.3801</ele>
        <time>2011-05-17T18:53:59Z</time>
      </trkpt>
      <trkpt lat="59.3146357" lon="18.4867945">
        <ele>31.8607</ele>
        <time>2011-05-17T18:54:00Z</time>
      </trkpt>
      <trkpt lat="59.3145803" lon="18.4868848">
        <ele>31.8607</ele>
        <time>2011-05-17T18:54:04Z</time>
      </trkpt>
      <trkpt lat="59.3145764" lon="18.4869128">
        <ele>32.3416</ele>
        <time>2011-05-17T18:54:05Z</time>
      </trkpt>
      <trkpt lat="59.3145313" lon="18.4870598">
        <ele>30.4188</ele>
        <time>2011-05-17T18:54:11Z</time>
      </trkpt>
      <trkpt lat="59.314498" lon="18.4872478">
        <ele>31.8607</ele>
        <time>2011-05-17T18:54:16Z</time>
      </trkpt>
      <trkpt lat="59.314477" lon="18.4874093">
        <ele>33.3029</ele>
        <time>2011-05-17T18:54:20Z</time>
      </trkpt>
      <trkpt lat="59.3144663" lon="18.4875957">
        <ele>35.7061</ele>
        <time>2011-05-17T18:54:25Z</time>
      </trkpt>
      <trkpt lat="59.3144935" lon="18.4878703">
        <ele>34.7449</ele>
        <time>2011-05-17T18:54:30Z</time>
      </trkpt>
      <trkpt lat="59.314526" lon="18.4881223">
        <ele>33.3029</ele>
        <time>2011-05-17T18:54:35Z</time>
      </trkpt>
      <trkpt lat="59.3145287" lon="18.4883102">
        <ele>31.3801</ele>
        <time>2011-05-17T18:54:39Z</time>
      </trkpt>
      <trkpt lat="59.3145026" lon="18.488607">
        <ele>31.3801</ele>
        <time>2011-05-17T18:54:45Z</time>
      </trkpt>
      <trkpt lat="59.3144889" lon="18.4888837">
        <ele>31.8607</ele>
        <time>2011-05-17T18:54:50Z</time>
      </trkpt>
      <trkpt lat="59.3144783" lon="18.489095">
        <ele>33.7834</ele>
        <time>2011-05-17T18:54:54Z</time>
      </trkpt>
      <trkpt lat="59.3144244" lon="18.4893204">
        <ele>36.6675</ele>
        <time>2011-05-17T18:54:59Z</time>
      </trkpt>
      <trkpt lat="59.3143206" lon="18.4894994">
        <ele>41.474</ele>
        <time>2011-05-17T18:55:05Z</time>
      </trkpt>
      <trkpt lat="59.3142226" lon="18.489566">
        <ele>42.4354</ele>
        <time>2011-05-17T18:55:09Z</time>
      </trkpt>
      <trkpt lat="59.3141723" lon="18.4895732">
        <ele>43.3966</ele>
        <time>2011-05-17T18:55:11Z</time>
      </trkpt>
      <trkpt lat="59.314062" lon="18.4896244">
        <ele>43.8773</ele>
        <time>2011-05-17T18:55:15Z</time>
      </trkpt>
      <trkpt lat="59.3139864" lon="18.4897125">
        <ele>43.8773</ele>
        <time>2011-05-17T18:55:18Z</time>
      </trkpt>
      <trkpt lat="59.3139651" lon="18.4897461">
        <ele>44.358</ele>
        <time>2011-05-17T18:55:19Z</time>
      </trkpt>
      <trkpt lat="59.3139158" lon="18.4899565">
        <ele>44.358</ele>
        <time>2011-05-17T18:55:25Z</time>
      </trkpt>
      <trkpt lat="59.3139338" lon="18.4901456">
        <ele>43.3966</ele>
        <time>2011-05-17T18:55:30Z</time>
      </trkpt>
      <trkpt lat="59.3139913" lon="18.4904076">
        <ele>40.9934</ele>
        <time>2011-05-17T18:55:36Z</time>
      </trkpt>
      <trkpt lat="59.3140419" lon="18.4905805">
        <ele>39.5513</ele>
        <time>2011-05-17T18:55:40Z</time>
      </trkpt>
      <trkpt lat="59.3141085" lon="18.4907126">
        <ele>36.6675</ele>
        <time>2011-05-17T18:55:44Z</time>
      </trkpt>
      <trkpt lat="59.3141664" lon="18.4908561">
        <ele>33.7834</ele>
        <time>2011-05-17T18:55:48Z</time>
      </trkpt>
      <trkpt lat="59.3142545" lon="18.4910413">
        <ele>31.3801</ele>
        <time>2011-05-17T18:55:53Z</time>
      </trkpt>
      <trkpt lat="59.3142985" lon="18.491279">
        <ele>29.4575</ele>
        <time>2011-05-17T18:55:58Z</time>
      </trkpt>
      <trkpt lat="59.3142763" lon="18.4914949">
        <ele>29.4575</ele>
        <time>2011-05-17T18:56:02Z</time>
      </trkpt>
      <trkpt lat="59.3141685" lon="18.4918188">
        <ele>29.9381</ele>
        <time>2011-05-17T18:56:07Z</time>
      </trkpt>
      <trkpt lat="59.314148" lon="18.4918725">
        <ele>29.9381</ele>
        <time>2011-05-17T18:56:08Z</time>
      </trkpt>
      <trkpt lat="59.3141146" lon="18.4920783">
        <ele>29.9381</ele>
        <time>2011-05-17T18:56:12Z</time>
      </trkpt>
      <trkpt lat="59.3141084" lon="18.4921377">
        <ele>29.4575</ele>
        <time>2011-05-17T18:56:13Z</time>
      </trkpt>
      <trkpt lat="59.31407" lon="18.4924153">
        <ele>30.4188</ele>
        <time>2011-05-17T18:56:18Z</time>
      </trkpt>
      <trkpt lat="59.3140621" lon="18.4925181">
        <ele>33.7834</ele>
        <time>2011-05-17T18:56:21Z</time>
      </trkpt>
      <trkpt lat="59.3140457" lon="18.4926715">
        <ele>33.7834</ele>
        <time>2011-05-17T18:56:25Z</time>
      </trkpt>
      <trkpt lat="59.3140208" lon="18.4928963">
        <ele>34.7449</ele>
        <time>2011-05-17T18:56:30Z</time>
      </trkpt>
      <trkpt lat="59.3139919" lon="18.4931675">
        <ele>35.7061</ele>
        <time>2011-05-17T18:56:35Z</time>
      </trkpt>
      <trkpt lat="59.3139656" lon="18.4933998">
        <ele>37.6287</ele>
        <time>2011-05-17T18:56:39Z</time>
      </trkpt>
      <trkpt lat="59.3139462" lon="18.4936323">
        <ele>35.7061</ele>
        <time>2011-05-17T18:56:44Z</time>
      </trkpt>
      <trkpt lat="59.3139362" lon="18.4937318">
        <ele>35.7061</ele>
        <time>2011-05-17T18:56:46Z</time>
      </trkpt>
      <trkpt lat="59.3139106" lon="18.4940237">
        <ele>35.2255</ele>
        <time>2011-05-17T18:56:52Z</time>
      </trkpt>
      <trkpt lat="59.3138946" lon="18.4943098">
        <ele>35.2255</ele>
        <time>2011-05-17T18:56:58Z</time>
      </trkpt>
      <trkpt lat="59.3138888" lon="18.4945295">
        <ele>36.1868</ele>
        <time>2011-05-17T18:57:02Z</time>
      </trkpt>
      <trkpt lat="59.3139112" lon="18.4947209">
        <ele>36.6675</ele>
        <time>2011-05-17T18:57:06Z</time>
      </trkpt>
      <trkpt lat="59.3139008" lon="18.4949713">
        <ele>35.2255</ele>
        <time>2011-05-17T18:57:11Z</time>
      </trkpt>
      <trkpt lat="59.3138681" lon="18.4951567">
        <ele>35.7061</ele>
        <time>2011-05-17T18:57:15Z</time>
      </trkpt>
      <trkpt lat="59.3138017" lon="18.495307">
        <ele>37.1481</ele>
        <time>2011-05-17T18:57:19Z</time>
      </trkpt>
      <trkpt lat="59.3137929" lon="18.4953267">
        <ele>38.5901</ele>
        <time>2011-05-17T18:57:20Z</time>
      </trkpt>
      <trkpt lat="59.3137083" lon="18.4953634">
        <ele>39.0707</ele>
        <time>2011-05-17T18:57:25Z</time>
      </trkpt>
      <trkpt lat="59.3136145" lon="18.4953825">
        <ele>40.5128</ele>
        <time>2011-05-17T18:57:29Z</time>
      </trkpt>
      <trkpt lat="59.3135246" lon="18.4953836">
        <ele>39.5513</ele>
        <time>2011-05-17T18:57:33Z</time>
      </trkpt>
      <trkpt lat="59.3134778" lon="18.4954127">
        <ele>39.5513</ele>
        <time>2011-05-17T18:57:35Z</time>
      </trkpt>
      <trkpt lat="59.3134024" lon="18.4956313">
        <ele>39.0707</ele>
        <time>2011-05-17T18:57:40Z</time>
      </trkpt>
      <trkpt lat="59.3133875" lon="18.495869">
        <ele>38.1094</ele>
        <time>2011-05-17T18:57:44Z</time>
      </trkpt>
      <trkpt lat="59.3133988" lon="18.4960465">
        <ele>37.1481</ele>
        <time>2011-05-17T18:57:47Z</time>
      </trkpt>
      <trkpt lat="59.3134212" lon="18.4961513">
        <ele>36.6675</ele>
        <time>2011-05-17T18:57:49Z</time>
      </trkpt>
      <trkpt lat="59.3134989" lon="18.4964294">
        <ele>34.2642</ele>
        <time>2011-05-17T18:57:55Z</time>
      </trkpt>
      <trkpt lat="59.3135756" lon="18.4966565">
        <ele>32.8223</ele>
        <time>2011-05-17T18:58:00Z</time>
      </trkpt>
      <trkpt lat="59.3136259" lon="18.4969434">
        <ele>32.8223</ele>
        <time>2011-05-17T18:58:05Z</time>
      </trkpt>
      <trkpt lat="59.3136849" lon="18.497123">
        <ele>32.3416</ele>
        <time>2011-05-17T18:58:09Z</time>
      </trkpt>
      <trkpt lat="59.3137818" lon="18.4972436">
        <ele>31.8607</ele>
        <time>2011-05-17T18:58:13Z</time>
      </trkpt>
      <trkpt lat="59.3138608" lon="18.49715">
        <ele>30.4188</ele>
        <time>2011-05-17T18:58:18Z</time>
      </trkpt>
      <trkpt lat="59.3139528" lon="18.497047">
        <ele>29.9381</ele>
        <time>2011-05-17T18:58:22Z</time>
      </trkpt>
      <trkpt lat="59.3140252" lon="18.4969406">
        <ele>28.4962</ele>
        <time>2011-05-17T18:58:26Z</time>
      </trkpt>
      <trkpt lat="59.3141524" lon="18.4968262">
        <ele>27.5349</ele>
        <time>2011-05-17T18:58:31Z</time>
      </trkpt>
      <trkpt lat="59.3142614" lon="18.4967538">
        <ele>27.5349</ele>
        <time>2011-05-17T18:58:35Z</time>
      </trkpt>
      <trkpt lat="59.3142866" lon="18.4967264">
        <ele>26.5736</ele>
        <time>2011-05-17T18:58:36Z</time>
      </trkpt>
      <trkpt lat="59.3144602" lon="18.4966938">
        <ele>24.1703</ele>
        <time>2011-05-17T18:58:42Z</time>
      </trkpt>
      <trkpt lat="59.314605" lon="18.496591">
        <ele>23.209</ele>
        <time>2011-05-17T18:58:47Z</time>
      </trkpt>
      <trkpt lat="59.3147436" lon="18.4965887">
        <ele>25.1317</ele>
        <time>2011-05-17T18:58:51Z</time>
      </trkpt>
      <trkpt lat="59.3149006" lon="18.496618">
        <ele>25.1317</ele>
        <time>2011-05-17T18:58:56Z</time>
      </trkpt>
      <trkpt lat="59.3150349" lon="18.4966128">
        <ele>25.1317</ele>
        <time>2011-05-17T18:59:00Z</time>
      </trkpt>
      <trkpt lat="59.3151563" lon="18.4966087">
        <ele>25.6123</ele>
        <time>2011-05-17T18:59:04Z</time>
      </trkpt>
      <trkpt lat="59.3153144" lon="18.4966381">
        <ele>25.6123</ele>
        <time>2011-05-17T18:59:09Z</time>
      </trkpt>
      <trkpt lat="59.3154564" lon="18.4966849">
        <ele>25.6123</ele>
        <time>2011-05-17T18:59:14Z</time>
      </trkpt>
      <trkpt lat="59.3155858" lon="18.4966595">
        <ele>24.651</ele>
        <time>2011-05-17T18:59:19Z</time>
      </trkpt>
      <trkpt lat="59.3157158" lon="18.4967181">
        <ele>24.1703</ele>
        <time>2011-05-17T18:59:23Z</time>
      </trkpt>
      <trkpt lat="59.3158785" lon="18.4968025">
        <ele>21.2864</ele>
        <time>2011-05-17T18:59:28Z</time>
      </trkpt>
      <trkpt lat="59.3160486" lon="18.4968507">
        <ele>18.4023</ele>
        <time>2011-05-17T18:59:34Z</time>
      </trkpt>
      <trkpt lat="59.3160636" lon="18.4968486">
        <ele>17.4412</ele>
        <time>2011-05-17T18:59:35Z</time>
      </trkpt>
      <trkpt lat="59.316166" lon="18.4967809">
        <ele>15.999</ele>
        <time>2011-05-17T18:59:40Z</time>
      </trkpt>
      <trkpt lat="59.3162577" lon="18.4966683">
        <ele>16.4797</ele>
        <time>2011-05-17T18:59:44Z</time>
      </trkpt>
      <trkpt lat="59.316349" lon="18.4964125">
        <ele>18.8831</ele>
        <time>2011-05-17T18:59:51Z</time>
      </trkpt>
      <trkpt lat="59.3163593" lon="18.4963757">
        <ele>18.8831</ele>
        <time>2011-05-17T18:59:52Z</time>
      </trkpt>
      <trkpt lat="59.3163769" lon="18.4961103">
        <ele>18.8831</ele>
        <time>2011-05-17T19:00:00Z</time>
      </trkpt>
      <trkpt lat="59.3163926" lon="18.4958785">
        <ele>20.325</ele>
        <time>2011-05-17T19:00:05Z</time>
      </trkpt>
      <trkpt lat="59.316407" lon="18.4958">
        <ele>21.2864</ele>
        <time>2011-05-17T19:00:07Z</time>
      </trkpt>
      <trkpt lat="59.3164413" lon="18.495686">
        <ele>21.767</ele>
        <time>2011-05-17T19:00:10Z</time>
      </trkpt>
      <trkpt lat="59.3164666" lon="18.4954737">
        <ele>23.209</ele>
        <time>2011-05-17T19:00:14Z</time>
      </trkpt>
      <trkpt lat="59.3165514" lon="18.4951384">
        <ele>23.209</ele>
        <time>2011-05-17T19:00:22Z</time>
      </trkpt>
      <trkpt lat="59.3166297" lon="18.4950295">
        <ele>22.7283</ele>
        <time>2011-05-17T19:00:26Z</time>
      </trkpt>
      <trkpt lat="59.316709" lon="18.4949801">
        <ele>22.2476</ele>
        <time>2011-05-17T19:00:29Z</time>
      </trkpt>
      <trkpt lat="59.316842" lon="18.4947147">
        <ele>19.8444</ele>
        <time>2011-05-17T19:00:36Z</time>
      </trkpt>
      <trkpt lat="59.3169183" lon="18.4945843">
        <ele>17.9218</ele>
        <time>2011-05-17T19:00:41Z</time>
      </trkpt>
      <trkpt lat="59.316996" lon="18.4944702">
        <ele>17.9218</ele>
        <time>2011-05-17T19:00:45Z</time>
      </trkpt>
      <trkpt lat="59.3170046" lon="18.4944321">
        <ele>17.9218</ele>
        <time>2011-05-17T19:00:46Z</time>
      </trkpt>
      <trkpt lat="59.317052" lon="18.4942648">
        <ele>18.4023</ele>
        <time>2011-05-17T19:00:50Z</time>
      </trkpt>
      <trkpt lat="59.3171333" lon="18.4940747">
        <ele>19.8444</ele>
        <time>2011-05-17T19:00:56Z</time>
      </trkpt>
      <trkpt lat="59.317233" lon="18.4938476">
        <ele>20.8057</ele>
        <time>2011-05-17T19:01:02Z</time>
      </trkpt>
      <trkpt lat="59.317325" lon="18.4936445">
        <ele>26.5736</ele>
        <time>2011-05-17T19:01:07Z</time>
      </trkpt>
      <trkpt lat="59.3174119" lon="18.4935407">
        <ele>28.9769</ele>
        <time>2011-05-17T19:01:11Z</time>
      </trkpt>
      <trkpt lat="59.317447" lon="18.4934334">
        <ele>29.9381</ele>
        <time>2011-05-17T19:01:13Z</time>
      </trkpt>
      <trkpt lat="59.3175347" lon="18.4932148">
        <ele>28.9769</ele>
        <time>2011-05-17T19:01:18Z</time>
      </trkpt>
      <trkpt lat="59.3176516" lon="18.4929371">
        <ele>27.5349</ele>
        <time>2011-05-17T19:01:24Z</time>
      </trkpt>
      <trkpt lat="59.317701" lon="18.4927675">
        <ele>28.4962</ele>
        <time>2011-05-17T19:01:28Z</time>
      </trkpt>
      <trkpt lat="59.3177165" lon="18.4927185">
        <ele>28.0155</ele>
        <time>2011-05-17T19:01:29Z</time>
      </trkpt>
      <trkpt lat="59.3178546" lon="18.4924694">
        <ele>28.0155</ele>
        <time>2011-05-17T19:01:35Z</time>
      </trkpt>
      <trkpt lat="59.317951" lon="18.4923253">
        <ele>27.0543</ele>
        <time>2011-05-17T19:01:40Z</time>
      </trkpt>
      <trkpt lat="59.3180957" lon="18.4922338">
        <ele>23.6896</ele>
        <time>2011-05-17T19:01:46Z</time>
      </trkpt>
      <trkpt lat="59.318177" lon="18.4921813">
        <ele>22.7283</ele>
        <time>2011-05-17T19:01:49Z</time>
      </trkpt>
      <trkpt lat="59.3183598" lon="18.4921807">
        <ele>18.8831</ele>
        <time>2011-05-17T19:01:56Z</time>
      </trkpt>
      <trkpt lat="59.3184945" lon="18.4921765">
        <ele>19.3638</ele>
        <time>2011-05-17T19:02:01Z</time>
      </trkpt>
      <trkpt lat="59.3185674" lon="18.4921076">
        <ele>21.2864</ele>
        <time>2011-05-17T19:02:04Z</time>
      </trkpt>
      <trkpt lat="59.3186806" lon="18.4919571">
        <ele>26.0929</ele>
        <time>2011-05-17T19:02:10Z</time>
      </trkpt>
      <trkpt lat="59.3187788" lon="18.4918437">
        <ele>27.5349</ele>
        <time>2011-05-17T19:02:15Z</time>
      </trkpt>
      <trkpt lat="59.3188085" lon="18.4917004">
        <ele>28.4962</ele>
        <time>2011-05-17T19:02:18Z</time>
      </trkpt>
      <trkpt lat="59.3188395" lon="18.4915307">
        <ele>28.9769</ele>
        <time>2011-05-17T19:02:22Z</time>
      </trkpt>
      <trkpt lat="59.3188753" lon="18.4912997">
        <ele>29.9381</ele>
        <time>2011-05-17T19:02:27Z</time>
      </trkpt>
      <trkpt lat="59.3189022" lon="18.4911074">
        <ele>29.9381</ele>
        <time>2011-05-17T19:02:31Z</time>
      </trkpt>
      <trkpt lat="59.3189241" lon="18.4909158">
        <ele>27.5349</ele>
        <time>2011-05-17T19:02:35Z</time>
      </trkpt>
      <trkpt lat="59.318945" lon="18.4907505">
        <ele>27.0543</ele>
        <time>2011-05-17T19:02:39Z</time>
      </trkpt>
      <trkpt lat="59.3189841" lon="18.4905034">
        <ele>26.0929</ele>
        <time>2011-05-17T19:02:44Z</time>
      </trkpt>
      <trkpt lat="59.3190187" lon="18.4903309">
        <ele>24.651</ele>
        <time>2011-05-17T19:02:48Z</time>
      </trkpt>
      <trkpt lat="59.3190457" lon="18.4901106">
        <ele>24.1703</ele>
        <time>2011-05-17T19:02:53Z</time>
      </trkpt>
      <trkpt lat="59.3190882" lon="18.4898934">
        <ele>24.651</ele>
        <time>2011-05-17T19:02:58Z</time>
      </trkpt>
      <trkpt lat="59.3191346" lon="18.4896489">
        <ele>24.1703</ele>
        <time>2011-05-17T19:03:03Z</time>
      </trkpt>
      <trkpt lat="59.3192053" lon="18.489412">
        <ele>24.1703</ele>
        <time>2011-05-17T19:03:08Z</time>
      </trkpt>
      <trkpt lat="59.3192799" lon="18.4892018">
        <ele>25.1317</ele>
        <time>2011-05-17T19:03:13Z</time>
      </trkpt>
      <trkpt lat="59.3192933" lon="18.4889974">
        <ele>25.6123</ele>
        <time>2011-05-17T19:03:17Z</time>
      </trkpt>
      <trkpt lat="59.319313" lon="18.4887081">
        <ele>27.5349</ele>
        <time>2011-05-17T19:03:22Z</time>
      </trkpt>
      <trkpt lat="59.3193658" lon="18.4883479">
        <ele>26.5736</ele>
        <time>2011-05-17T19:03:29Z</time>
      </trkpt>
      <trkpt lat="59.3194621" lon="18.4881771">
        <ele>27.0543</ele>
        <time>2011-05-17T19:03:34Z</time>
      </trkpt>
      <trkpt lat="59.3195657" lon="18.4880973">
        <ele>26.5736</ele>
        <time>2011-05-17T19:03:38Z</time>
      </trkpt>
      <trkpt lat="59.3197082" lon="18.4880656">
        <ele>27.0543</ele>
        <time>2011-05-17T19:03:43Z</time>
      </trkpt>
      <trkpt lat="59.3198179" lon="18.4880462">
        <ele>27.0543</ele>
        <time>2011-05-17T19:03:47Z</time>
      </trkpt>
      <trkpt lat="59.3198438" lon="18.4880512">
        <ele>26.5736</ele>
        <time>2011-05-17T19:03:48Z</time>
      </trkpt>
      <trkpt lat="59.3199322" lon="18.4880922">
        <ele>24.651</ele>
        <time>2011-05-17T19:03:52Z</time>
      </trkpt>
      <trkpt lat="59.3199324" lon="18.488087">
        <ele>24.651</ele>
        <time>2011-05-17T19:03:53Z</time>
      </trkpt>
      <trkpt lat="59.3199709" lon="18.4879749">
        <ele>23.6896</ele>
        <time>2011-05-17T19:03:57Z</time>
      </trkpt>
      <trkpt lat="59.3200076" lon="18.487845">
        <ele>24.651</ele>
        <time>2011-05-17T19:04:00Z</time>
      </trkpt>
      <trkpt lat="59.3199756" lon="18.4876514">
        <ele>26.0929</ele>
        <time>2011-05-17T19:04:04Z</time>
      </trkpt>
      <trkpt lat="59.3198813" lon="18.4873969">
        <ele>28.4962</ele>
        <time>2011-05-17T19:04:10Z</time>
      </trkpt>
      <trkpt lat="59.3197751" lon="18.4872126">
        <ele>29.9381</ele>
        <time>2011-05-17T19:04:16Z</time>
      </trkpt>
      <trkpt lat="59.3197539" lon="18.4871804">
        <ele>30.4188</ele>
        <time>2011-05-17T19:04:17Z</time>
      </trkpt>
    </trkseg>
  </trk>
</gpx>